sensor_id;sensor_type;location;lat;lon;timestamp;P1;durP1;ratioP1;P2;durP2;ratioP2
52458;SDS011;38372;52.902;6.024;2022-09-02T00:01:19;3.50;;;1.38;;
52458;SDS011;38372;52.902;6.024;2022-09-02T00:03:54;4.60;;;1.15;;
52458;SDS011;38372;52.902;6.024;2022-09-02T00:06:22;2.03;;;1.38;;
52458;SDS011;38372;52.902;6.024;2022-09-02T00:08:48;4.05;;;1.70;;
52458;SDS011;38372;52.902;6.024;2022-09-02T00:11:15;1.92;;;1.15;;
52458;SDS011;38372;52.902;6.024;2022-09-02T00:13:44;5.75;;;1.40;;
52458;SDS011;38372;52.902;6.024;2022-09-02T00:16:10;1.60;;;1.10;;
52458;SDS011;38372;52.902;6.024;2022-09-02T00:18:36;3.38;;;1.50;;
52458;SDS011;38372;52.902;6.024;2022-09-02T00:21:03;2.97;;;1.50;;
52458;SDS011;38372;52.902;6.024;2022-09-02T00:23:29;3.42;;;1.10;;
52458;SDS011;38372;52.902;6.024;2022-09-02T00:25:56;1.77;;;1.20;;
52458;SDS011;38372;52.902;6.024;2022-09-02T00:28:22;1.80;;;1.20;;
52458;SDS011;38372;52.902;6.024;2022-09-02T00:30:48;5.38;;;1.20;;
52458;SDS011;38372;52.902;6.024;2022-09-02T00:33:15;3.22;;;1.30;;
52458;SDS011;38372;52.902;6.024;2022-09-02T00:35:41;2.20;;;1.13;;
52458;SDS011;38372;52.902;6.024;2022-09-02T00:38:08;2.78;;;1.20;;
52458;SDS011;38372;52.902;6.024;2022-09-02T00:40:34;4.75;;;1.67;;
52458;SDS011;38372;52.902;6.024;2022-09-02T00:43:03;4.57;;;1.40;;
52458;SDS011;38372;52.902;6.024;2022-09-02T00:45:30;2.83;;;1.05;;
52458;SDS011;38372;52.902;6.024;2022-09-02T00:47:56;3.25;;;1.20;;
52458;SDS011;38372;52.902;6.024;2022-09-02T00:50:23;3.58;;;1.40;;
52458;SDS011;38372;52.902;6.024;2022-09-02T00:52:58;4.10;;;1.33;;
52458;SDS011;38372;52.902;6.024;2022-09-02T00:55:29;4.20;;;1.45;;
52458;SDS011;38372;52.902;6.024;2022-09-02T00:58:14;2.28;;;1.30;;
52458;SDS011;38372;52.902;6.024;2022-09-02T01:00:45;2.67;;;1.40;;
52458;SDS011;38372;52.902;6.024;2022-09-02T01:03:14;1.80;;;1.10;;
52458;SDS011;38372;52.902;6.024;2022-09-02T01:05:44;4.27;;;1.70;;
52458;SDS011;38372;52.902;6.024;2022-09-02T01:08:13;2.78;;;1.35;;
52458;SDS011;38372;52.902;6.024;2022-09-02T01:10:45;2.75;;;1.52;;
52458;SDS011;38372;52.902;6.024;2022-09-02T01:13:13;2.80;;;1.10;;
52458;SDS011;38372;52.902;6.024;2022-09-02T01:15:45;3.00;;;1.25;;
52458;SDS011;38372;52.902;6.024;2022-09-02T01:18:16;2.40;;;1.40;;
52458;SDS011;38372;52.902;6.024;2022-09-02T01:20:45;3.55;;;1.50;;
52458;SDS011;38372;52.902;6.024;2022-09-02T01:23:12;3.00;;;1.48;;
52458;SDS011;38372;52.902;6.024;2022-09-02T01:25:41;2.85;;;1.20;;
52458;SDS011;38372;52.902;6.024;2022-09-02T01:28:09;3.05;;;1.48;;
52458;SDS011;38372;52.902;6.024;2022-09-02T01:30:38;2.20;;;1.50;;
52458;SDS011;38372;52.902;6.024;2022-09-02T01:33:06;2.35;;;1.27;;
52458;SDS011;38372;52.902;6.024;2022-09-02T01:35:33;3.40;;;1.20;;
52458;SDS011;38372;52.902;6.024;2022-09-02T01:37:59;2.85;;;1.23;;
52458;SDS011;38372;52.902;6.024;2022-09-02T01:40:27;2.70;;;1.40;;
52458;SDS011;38372;52.902;6.024;2022-09-02T01:42:55;2.13;;;1.40;;
52458;SDS011;38372;52.902;6.024;2022-09-02T01:45:25;2.30;;;1.17;;
52458;SDS011;38372;52.902;6.024;2022-09-02T01:47:52;3.30;;;1.50;;
52458;SDS011;38372;52.902;6.024;2022-09-02T01:50:17;2.70;;;1.30;;
52458;SDS011;38372;52.902;6.024;2022-09-02T01:52:44;2.95;;;1.10;;
52458;SDS011;38372;52.902;6.024;2022-09-02T01:55:10;3.28;;;1.40;;
52458;SDS011;38372;52.902;6.024;2022-09-02T01:57:36;4.15;;;1.45;;
52458;SDS011;38372;52.902;6.024;2022-09-02T02:00:03;9.00;;;1.40;;
52458;SDS011;38372;52.902;6.024;2022-09-02T02:02:30;2.03;;;1.50;;
52458;SDS011;38372;52.902;6.024;2022-09-02T02:04:56;3.47;;;1.27;;
52458;SDS011;38372;52.902;6.024;2022-09-02T02:07:22;2.65;;;1.08;;
52458;SDS011;38372;52.902;6.024;2022-09-02T02:09:49;5.13;;;1.50;;
52458;SDS011;38372;52.902;6.024;2022-09-02T02:12:16;3.15;;;1.30;;
52458;SDS011;38372;52.902;6.024;2022-09-02T02:14:43;2.30;;;1.25;;
52458;SDS011;38372;52.902;6.024;2022-09-02T02:17:09;4.53;;;1.60;;
52458;SDS011;38372;52.902;6.024;2022-09-02T02:19:35;4.15;;;1.50;;
52458;SDS011;38372;52.902;6.024;2022-09-02T02:22:01;2.65;;;1.63;;
52458;SDS011;38372;52.902;6.024;2022-09-02T02:24:27;2.33;;;1.50;;
52458;SDS011;38372;52.902;6.024;2022-09-02T02:26:53;3.78;;;1.55;;
52458;SDS011;38372;52.902;6.024;2022-09-02T02:29:20;3.47;;;1.42;;
52458;SDS011;38372;52.902;6.024;2022-09-02T02:31:46;3.83;;;1.60;;
52458;SDS011;38372;52.902;6.024;2022-09-02T02:34:13;2.35;;;1.35;;
52458;SDS011;38372;52.902;6.024;2022-09-02T02:36:39;2.78;;;1.50;;
52458;SDS011;38372;52.902;6.024;2022-09-02T02:39:07;2.53;;;1.30;;
52458;SDS011;38372;52.902;6.024;2022-09-02T02:41:34;3.45;;;1.35;;
52458;SDS011;38372;52.902;6.024;2022-09-02T02:44:00;4.40;;;1.50;;
52458;SDS011;38372;52.902;6.024;2022-09-02T02:46:27;4.32;;;1.67;;
52458;SDS011;38372;52.902;6.024;2022-09-02T02:48:55;2.60;;;1.40;;
52458;SDS011;38372;52.902;6.024;2022-09-02T02:51:23;2.75;;;1.42;;
52458;SDS011;38372;52.902;6.024;2022-09-02T02:53:49;2.47;;;1.30;;
52458;SDS011;38372;52.902;6.024;2022-09-02T02:56:15;2.65;;;1.65;;
52458;SDS011;38372;52.902;6.024;2022-09-02T02:58:41;4.82;;;1.48;;
52458;SDS011;38372;52.902;6.024;2022-09-02T03:01:07;4.57;;;1.50;;
52458;SDS011;38372;52.902;6.024;2022-09-02T03:03:33;4.72;;;1.42;;
52458;SDS011;38372;52.902;6.024;2022-09-02T03:05:59;3.13;;;1.40;;
52458;SDS011;38372;52.902;6.024;2022-09-02T03:08:24;4.05;;;1.88;;
52458;SDS011;38372;52.902;6.024;2022-09-02T03:10:51;1.92;;;1.50;;
52458;SDS011;38372;52.902;6.024;2022-09-02T03:13:21;2.00;;;1.40;;
52458;SDS011;38372;52.902;6.024;2022-09-02T03:15:50;1.67;;;1.25;;
52458;SDS011;38372;52.902;6.024;2022-09-02T03:18:16;6.00;;;1.38;;
52458;SDS011;38372;52.902;6.024;2022-09-02T03:20:43;1.73;;;1.35;;
52458;SDS011;38372;52.902;6.024;2022-09-02T03:23:09;2.50;;;1.48;;
52458;SDS011;38372;52.902;6.024;2022-09-02T03:25:37;3.65;;;1.42;;
52458;SDS011;38372;52.902;6.024;2022-09-02T03:28:06;4.60;;;1.30;;
52458;SDS011;38372;52.902;6.024;2022-09-02T03:30:33;1.85;;;1.60;;
52458;SDS011;38372;52.902;6.024;2022-09-02T03:32:59;2.63;;;1.35;;
52458;SDS011;38372;52.902;6.024;2022-09-02T03:35:27;1.70;;;1.30;;
52458;SDS011;38372;52.902;6.024;2022-09-02T03:37:54;4.45;;;1.60;;
52458;SDS011;38372;52.902;6.024;2022-09-02T03:40:21;2.85;;;1.90;;
52458;SDS011;38372;52.902;6.024;2022-09-02T03:42:50;3.25;;;1.60;;
52458;SDS011;38372;52.902;6.024;2022-09-02T03:45:17;4.90;;;1.70;;
52458;SDS011;38372;52.902;6.024;2022-09-02T03:47:44;3.65;;;1.42;;
52458;SDS011;38372;52.902;6.024;2022-09-02T03:50:28;2.72;;;1.58;;
52458;SDS011;38372;52.902;6.024;2022-09-02T03:52:56;4.10;;;1.77;;
52458;SDS011;38372;52.902;6.024;2022-09-02T03:55:23;3.85;;;1.92;;
52458;SDS011;38372;52.902;6.024;2022-09-02T03:57:51;4.85;;;2.20;;
52458;SDS011;38372;52.902;6.024;2022-09-02T04:00:17;2.45;;;1.50;;
52458;SDS011;38372;52.902;6.024;2022-09-02T04:02:45;2.20;;;1.60;;
52458;SDS011;38372;52.902;6.024;2022-09-02T04:05:12;3.05;;;1.63;;
52458;SDS011;38372;52.902;6.024;2022-09-02T04:07:38;4.93;;;1.80;;
52458;SDS011;38372;52.902;6.024;2022-09-02T04:10:05;2.38;;;1.40;;
52458;SDS011;38372;52.902;6.024;2022-09-02T04:12:33;4.88;;;1.70;;
52458;SDS011;38372;52.902;6.024;2022-09-02T04:15:01;2.53;;;1.38;;
52458;SDS011;38372;52.902;6.024;2022-09-02T04:17:28;4.57;;;1.67;;
52458;SDS011;38372;52.902;6.024;2022-09-02T04:19:55;3.50;;;1.65;;
52458;SDS011;38372;52.902;6.024;2022-09-02T04:22:20;3.38;;;1.50;;
52458;SDS011;38372;52.902;6.024;2022-09-02T04:24:46;2.78;;;1.67;;
52458;SDS011;38372;52.902;6.024;2022-09-02T04:27:12;2.83;;;1.88;;
52458;SDS011;38372;52.902;6.024;2022-09-02T04:29:38;3.50;;;1.58;;
52458;SDS011;38372;52.902;6.024;2022-09-02T04:32:04;3.90;;;1.83;;
52458;SDS011;38372;52.902;6.024;2022-09-02T04:34:30;2.80;;;2.13;;
52458;SDS011;38372;52.902;6.024;2022-09-02T04:36:55;2.00;;;1.80;;
52458;SDS011;38372;52.902;6.024;2022-09-02T04:39:21;4.80;;;1.67;;
52458;SDS011;38372;52.902;6.024;2022-09-02T04:41:47;2.72;;;1.85;;
52458;SDS011;38372;52.902;6.024;2022-09-02T04:44:13;2.85;;;1.98;;
52458;SDS011;38372;52.902;6.024;2022-09-02T04:46:39;3.22;;;2.03;;
52458;SDS011;38372;52.902;6.024;2022-09-02T04:49:05;5.00;;;1.73;;
52458;SDS011;38372;52.902;6.024;2022-09-02T04:51:30;4.43;;;1.80;;
52458;SDS011;38372;52.902;6.024;2022-09-02T04:53:57;3.08;;;1.40;;
52458;SDS011;38372;52.902;6.024;2022-09-02T04:56:24;3.60;;;1.63;;
52458;SDS011;38372;52.902;6.024;2022-09-02T04:58:52;3.83;;;1.90;;
52458;SDS011;38372;52.902;6.024;2022-09-02T05:01:20;3.22;;;1.55;;
52458;SDS011;38372;52.902;6.024;2022-09-02T05:03:54;5.72;;;1.70;;
52458;SDS011;38372;52.902;6.024;2022-09-02T05:06:22;4.07;;;1.55;;
52458;SDS011;38372;52.902;6.024;2022-09-02T05:08:51;5.50;;;2.03;;
52458;SDS011;38372;52.902;6.024;2022-09-02T05:11:22;2.67;;;1.60;;
52458;SDS011;38372;52.902;6.024;2022-09-02T05:13:54;4.63;;;1.83;;
52458;SDS011;38372;52.902;6.024;2022-09-02T05:16:23;4.00;;;1.73;;
52458;SDS011;38372;52.902;6.024;2022-09-02T05:18:51;2.42;;;1.70;;
52458;SDS011;38372;52.902;6.024;2022-09-02T05:21:18;3.30;;;1.83;;
52458;SDS011;38372;52.902;6.024;2022-09-02T05:23:46;2.80;;;1.95;;
52458;SDS011;38372;52.902;6.024;2022-09-02T05:26:12;2.47;;;1.52;;
52458;SDS011;38372;52.902;6.024;2022-09-02T05:28:38;3.03;;;1.73;;
52458;SDS011;38372;52.902;6.024;2022-09-02T05:31:06;2.95;;;1.70;;
52458;SDS011;38372;52.902;6.024;2022-09-02T05:33:37;2.45;;;1.70;;
52458;SDS011;38372;52.902;6.024;2022-09-02T05:36:09;5.00;;;1.75;;
52458;SDS011;38372;52.902;6.024;2022-09-02T05:38:37;2.50;;;1.50;;
52458;SDS011;38372;52.902;6.024;2022-09-02T05:41:05;2.63;;;1.60;;
52458;SDS011;38372;52.902;6.024;2022-09-02T05:43:38;5.50;;;1.50;;
52458;SDS011;38372;52.902;6.024;2022-09-02T05:46:05;3.10;;;1.35;;
52458;SDS011;38372;52.902;6.024;2022-09-02T05:48:33;3.13;;;1.60;;
52458;SDS011;38372;52.902;6.024;2022-09-02T05:54:02;3.08;;;1.48;;
52458;SDS011;38372;52.902;6.024;2022-09-02T05:56:28;2.92;;;1.77;;
52458;SDS011;38372;52.902;6.024;2022-09-02T05:58:54;3.10;;;1.55;;
52458;SDS011;38372;52.902;6.024;2022-09-02T06:01:21;3.47;;;1.40;;
52458;SDS011;38372;52.902;6.024;2022-09-02T06:03:47;2.70;;;1.50;;
52458;SDS011;38372;52.902;6.024;2022-09-02T06:06:14;3.58;;;1.60;;
52458;SDS011;38372;52.902;6.024;2022-09-02T06:08:40;2.97;;;1.60;;
52458;SDS011;38372;52.902;6.024;2022-09-02T06:11:08;2.90;;;1.40;;
52458;SDS011;38372;52.902;6.024;2022-09-02T06:13:35;2.72;;;1.55;;
52458;SDS011;38372;52.902;6.024;2022-09-02T06:16:04;4.70;;;1.55;;
52458;SDS011;38372;52.902;6.024;2022-09-02T06:18:30;2.70;;;1.45;;
52458;SDS011;38372;52.902;6.024;2022-09-02T06:20:56;2.08;;;1.17;;
52458;SDS011;38372;52.902;6.024;2022-09-02T06:23:22;5.72;;;1.50;;
52458;SDS011;38372;52.902;6.024;2022-09-02T06:25:50;2.67;;;1.30;;
52458;SDS011;38372;52.902;6.024;2022-09-02T06:28:16;2.90;;;1.17;;
52458;SDS011;38372;52.902;6.024;2022-09-02T06:30:43;5.57;;;1.38;;
52458;SDS011;38372;52.902;6.024;2022-09-02T06:33:10;4.43;;;1.42;;
52458;SDS011;38372;52.902;6.024;2022-09-02T06:35:38;2.03;;;1.08;;
52458;SDS011;38372;52.902;6.024;2022-09-02T06:38:06;3.10;;;0.98;;
52458;SDS011;38372;52.902;6.024;2022-09-02T06:40:32;1.85;;;1.08;;
52458;SDS011;38372;52.902;6.024;2022-09-02T06:42:58;5.28;;;1.33;;
52458;SDS011;38372;52.902;6.024;2022-09-02T06:45:24;5.00;;;0.90;;
52458;SDS011;38372;52.902;6.024;2022-09-02T06:47:50;1.50;;;0.80;;
52458;SDS011;38372;52.902;6.024;2022-09-02T06:50:17;2.47;;;1.08;;
52458;SDS011;38372;52.902;6.024;2022-09-02T06:52:44;2.35;;;1.00;;
52458;SDS011;38372;52.902;6.024;2022-09-02T06:55:10;2.75;;;0.88;;
52458;SDS011;38372;52.902;6.024;2022-09-02T06:57:37;7.30;;;1.20;;
52458;SDS011;38372;52.902;6.024;2022-09-02T07:00:04;1.77;;;0.90;;
52458;SDS011;38372;52.902;6.024;2022-09-02T07:02:32;3.85;;;0.90;;
52458;SDS011;38372;52.902;6.024;2022-09-02T07:04:59;1.30;;;0.70;;
52458;SDS011;38372;52.902;6.024;2022-09-02T07:07:37;1.58;;;0.80;;
52458;SDS011;38372;52.902;6.024;2022-09-02T07:10:06;5.00;;;1.40;;
52458;SDS011;38372;52.902;6.024;2022-09-02T07:12:34;1.70;;;0.98;;
52458;SDS011;38372;52.902;6.024;2022-09-02T07:15:01;2.42;;;0.90;;
52458;SDS011;38372;52.902;6.024;2022-09-02T07:17:28;2.85;;;1.17;;
52458;SDS011;38372;52.902;6.024;2022-09-02T07:19:54;2.13;;;1.17;;
52458;SDS011;38372;52.902;6.024;2022-09-02T07:22:23;2.40;;;0.95;;
52458;SDS011;38372;52.902;6.024;2022-09-02T07:24:50;2.53;;;1.13;;
52458;SDS011;38372;52.902;6.024;2022-09-02T07:27:16;3.53;;;1.05;;
52458;SDS011;38372;52.902;6.024;2022-09-02T07:29:44;3.20;;;1.10;;
52458;SDS011;38372;52.902;6.024;2022-09-02T07:32:12;3.72;;;1.20;;
52458;SDS011;38372;52.902;6.024;2022-09-02T07:34:42;3.05;;;1.27;;
52458;SDS011;38372;52.902;6.024;2022-09-02T07:37:08;3.90;;;1.00;;
52458;SDS011;38372;52.902;6.024;2022-09-02T07:39:34;2.10;;;1.13;;
52458;SDS011;38372;52.902;6.024;2022-09-02T07:42:00;2.22;;;1.05;;
52458;SDS011;38372;52.902;6.024;2022-09-02T07:44:26;3.03;;;1.10;;
52458;SDS011;38372;52.902;6.024;2022-09-02T07:46:52;2.60;;;1.05;;
52458;SDS011;38372;52.902;6.024;2022-09-02T07:49:18;6.15;;;1.20;;
52458;SDS011;38372;52.902;6.024;2022-09-02T07:51:45;3.03;;;1.00;;
52458;SDS011;38372;52.902;6.024;2022-09-02T07:54:17;2.20;;;0.98;;
52458;SDS011;38372;52.902;6.024;2022-09-02T07:56:44;2.65;;;0.90;;
52458;SDS011;38372;52.902;6.024;2022-09-02T07:59:10;2.60;;;0.90;;
52458;SDS011;38372;52.902;6.024;2022-09-02T08:01:36;3.10;;;0.95;;
52458;SDS011;38372;52.902;6.024;2022-09-02T08:04:03;1.88;;;0.90;;
52458;SDS011;38372;52.902;6.024;2022-09-02T08:06:30;2.45;;;0.90;;
52458;SDS011;38372;52.902;6.024;2022-09-02T08:08:57;3.63;;;1.33;;
52458;SDS011;38372;52.902;6.024;2022-09-02T08:11:23;1.27;;;0.90;;
52458;SDS011;38372;52.902;6.024;2022-09-02T08:13:49;3.33;;;1.02;;
52458;SDS011;38372;52.902;6.024;2022-09-02T08:16:15;1.77;;;1.15;;
52458;SDS011;38372;52.902;6.024;2022-09-02T08:18:42;3.08;;;0.95;;
52458;SDS011;38372;52.902;6.024;2022-09-02T08:21:08;2.10;;;0.70;;
52458;SDS011;38372;52.902;6.024;2022-09-02T08:23:34;3.40;;;1.20;;
52458;SDS011;38372;52.902;6.024;2022-09-02T08:26:00;2.50;;;1.15;;
52458;SDS011;38372;52.902;6.024;2022-09-02T08:28:27;1.92;;;1.02;;
52458;SDS011;38372;52.902;6.024;2022-09-02T08:30:53;2.45;;;1.00;;
52458;SDS011;38372;52.902;6.024;2022-09-02T08:35:49;3.35;;;0.90;;
52458;SDS011;38372;52.902;6.024;2022-09-02T08:38:15;3.65;;;0.80;;
52458;SDS011;38372;52.902;6.024;2022-09-02T08:40:41;1.77;;;0.93;;
52458;SDS011;38372;52.902;6.024;2022-09-02T08:43:29;5.20;;;1.08;;
52458;SDS011;38372;52.902;6.024;2022-09-02T08:46:04;1.92;;;0.90;;
52458;SDS011;38372;52.902;6.024;2022-09-02T08:48:36;2.60;;;0.90;;
52458;SDS011;38372;52.902;6.024;2022-09-02T08:51:30;1.88;;;0.88;;
52458;SDS011;38372;52.902;6.024;2022-09-02T08:54:08;2.55;;;1.10;;
52458;SDS011;38372;52.902;6.024;2022-09-02T08:56:44;2.55;;;1.00;;
52458;SDS011;38372;52.902;6.024;2022-09-02T08:59:12;5.90;;;1.35;;
52458;SDS011;38372;52.902;6.024;2022-09-02T09:04:40;4.35;;;1.00;;
52458;SDS011;38372;52.902;6.024;2022-09-02T09:10:13;1.52;;;0.77;;
52458;SDS011;38372;52.902;6.024;2022-09-02T09:15:51;4.63;;;1.10;;
52458;SDS011;38372;52.902;6.024;2022-09-02T09:18:37;5.82;;;1.55;;
52458;SDS011;38372;52.902;6.024;2022-09-02T09:21:05;2.60;;;0.80;;
52458;SDS011;38372;52.902;6.024;2022-09-02T09:23:36;4.43;;;0.70;;
52458;SDS011;38372;52.902;6.024;2022-09-02T09:26:08;1.90;;;0.75;;
52458;SDS011;38372;52.902;6.024;2022-09-02T09:28:39;3.25;;;1.55;;
52458;SDS011;38372;52.902;6.024;2022-09-02T09:31:16;3.03;;;0.70;;
52458;SDS011;38372;52.902;6.024;2022-09-02T09:36:46;4.27;;;1.00;;
52458;SDS011;38372;52.902;6.024;2022-09-02T09:41:52;3.40;;;0.80;;
52458;SDS011;38372;52.902;6.024;2022-09-02T09:47:24;1.65;;;0.70;;
52458;SDS011;38372;52.902;6.024;2022-09-02T09:50:08;1.50;;;0.68;;
52458;SDS011;38372;52.902;6.024;2022-09-02T09:52:34;6.30;;;0.77;;
52458;SDS011;38372;52.902;6.024;2022-09-02T09:57:32;3.70;;;0.93;;
52458;SDS011;38372;52.902;6.024;2022-09-02T09:59:57;2.40;;;0.70;;
52458;SDS011;38372;52.902;6.024;2022-09-02T10:02:26;4.10;;;1.08;;
52458;SDS011;38372;52.902;6.024;2022-09-02T10:05:38;1.95;;;0.60;;
52458;SDS011;38372;52.902;6.024;2022-09-02T10:07:44;4.53;;;0.90;;
52458;SDS011;38372;52.902;6.024;2022-09-02T10:10:23;2.65;;;0.77;;
52458;SDS011;38372;52.902;6.024;2022-09-02T10:12:52;2.07;;;0.70;;
52458;SDS011;38372;52.902;6.024;2022-09-02T10:15:32;3.25;;;0.65;;
52458;SDS011;38372;52.902;6.024;2022-09-02T10:18:27;1.30;;;0.60;;
52458;SDS011;38372;52.902;6.024;2022-09-02T10:26:27;4.90;;;0.90;;
52458;SDS011;38372;52.902;6.024;2022-09-02T10:37:23;2.83;;;0.70;;
52458;SDS011;38372;52.902;6.024;2022-09-02T10:45:58;8.80;;;0.90;;
52458;SDS011;38372;52.902;6.024;2022-09-02T10:48:27;3.25;;;1.05;;
52458;SDS011;38372;52.902;6.024;2022-09-02T10:57:16;3.03;;;0.60;;
52458;SDS011;38372;52.902;6.024;2022-09-02T11:00:15;2.72;;;0.85;;
52458;SDS011;38372;52.902;6.024;2022-09-02T11:05:42;3.00;;;0.70;;
52458;SDS011;38372;52.902;6.024;2022-09-02T11:08:37;2.95;;;0.60;;
52458;SDS011;38372;52.902;6.024;2022-09-02T11:11:33;1.52;;;0.70;;
52458;SDS011;38372;52.902;6.024;2022-09-02T11:14:29;3.22;;;0.63;;
52458;SDS011;38372;52.902;6.024;2022-09-02T11:23:05;2.95;;;0.70;;
52458;SDS011;38372;52.902;6.024;2022-09-02T11:25:46;6.30;;;0.70;;
52458;SDS011;38372;52.902;6.024;2022-09-02T11:33:44;3.22;;;0.68;;
52458;SDS011;38372;52.902;6.024;2022-09-02T11:36:21;3.45;;;0.88;;
52458;SDS011;38372;52.902;6.024;2022-09-02T11:38:52;4.47;;;1.02;;
52458;SDS011;38372;52.902;6.024;2022-09-02T11:47:28;8.20;;;0.60;;
52458;SDS011;38372;52.902;6.024;2022-09-02T11:55:49;5.68;;;1.23;;
52458;SDS011;38372;52.902;6.024;2022-09-02T11:58:33;2.63;;;0.95;;
52458;SDS011;38372;52.902;6.024;2022-09-02T12:09:43;2.20;;;0.70;;
52458;SDS011;38372;52.902;6.024;2022-09-02T12:17:33;2.10;;;0.70;;
52458;SDS011;38372;52.902;6.024;2022-09-02T12:23:09;5.07;;;0.75;;
52458;SDS011;38372;52.902;6.024;2022-09-02T12:28:25;2.58;;;0.80;;
52458;SDS011;38372;52.902;6.024;2022-09-02T12:33:28;3.13;;;1.00;;
52458;SDS011;38372;52.902;6.024;2022-09-02T12:35:55;3.58;;;0.85;;
52458;SDS011;38372;52.902;6.024;2022-09-02T12:38:23;2.28;;;0.85;;
52458;SDS011;38372;52.902;6.024;2022-09-02T12:40:53;2.97;;;0.70;;
52458;SDS011;38372;52.902;6.024;2022-09-02T12:43:29;2.63;;;0.90;;
52458;SDS011;38372;52.902;6.024;2022-09-02T12:46:20;4.65;;;0.98;;
52458;SDS011;38372;52.902;6.024;2022-09-02T12:52:37;2.67;;;0.73;;
52458;SDS011;38372;52.902;6.024;2022-09-02T12:57:43;3.75;;;1.05;;
52458;SDS011;38372;52.902;6.024;2022-09-02T13:00:24;2.05;;;0.95;;
52458;SDS011;38372;52.902;6.024;2022-09-02T13:21:55;1.85;;;0.80;;
52458;SDS011;38372;52.902;6.024;2022-09-02T13:32:43;4.88;;;0.93;;
52458;SDS011;38372;52.902;6.024;2022-09-02T13:35:17;2.47;;;0.80;;
52458;SDS011;38372;52.902;6.024;2022-09-02T13:37:56;2.10;;;1.02;;
52458;SDS011;38372;52.902;6.024;2022-09-02T13:42:55;4.70;;;1.70;;
52458;SDS011;38372;52.902;6.024;2022-09-02T13:45:30;4.55;;;1.85;;
52458;SDS011;38372;52.902;6.024;2022-09-02T13:47:59;2.63;;;1.00;;
52458;SDS011;38372;52.902;6.024;2022-09-02T13:50:30;3.85;;;1.13;;
52458;SDS011;38372;52.902;6.024;2022-09-02T13:53:02;1.50;;;0.98;;
52458;SDS011;38372;52.902;6.024;2022-09-02T13:55:31;2.20;;;0.70;;
52458;SDS011;38372;52.902;6.024;2022-09-02T14:03:01;2.38;;;0.90;;
52458;SDS011;38372;52.902;6.024;2022-09-02T14:05:32;3.35;;;1.00;;
52458;SDS011;38372;52.902;6.024;2022-09-02T14:08:00;3.20;;;1.00;;
52458;SDS011;38372;52.902;6.024;2022-09-02T14:10:30;4.97;;;1.00;;
52458;SDS011;38372;52.902;6.024;2022-09-02T14:12:58;2.65;;;1.10;;
52458;SDS011;38372;52.902;6.024;2022-09-02T14:15:29;1.15;;;0.70;;
52458;SDS011;38372;52.902;6.024;2022-09-02T14:20:58;3.40;;;1.17;;
52458;SDS011;38372;52.902;6.024;2022-09-02T14:23:39;2.88;;;0.90;;
52458;SDS011;38372;52.902;6.024;2022-09-02T14:26:18;4.53;;;1.20;;
52458;SDS011;38372;52.902;6.024;2022-09-02T14:29:06;2.95;;;1.10;;
52458;SDS011;38372;52.902;6.024;2022-09-02T14:31:36;5.30;;;0.90;;
52458;SDS011;38372;52.902;6.024;2022-09-02T14:34:02;4.13;;;1.08;;
52458;SDS011;38372;52.902;6.024;2022-09-02T14:39:12;2.42;;;1.30;;
52458;SDS011;38372;52.902;6.024;2022-09-02T14:41:47;1.70;;;0.90;;
52458;SDS011;38372;52.902;6.024;2022-09-02T14:46:57;3.15;;;1.17;;
52458;SDS011;38372;52.902;6.024;2022-09-02T14:52:27;5.28;;;1.10;;
52458;SDS011;38372;52.902;6.024;2022-09-02T14:54:53;4.90;;;1.23;;
52458;SDS011;38372;52.902;6.024;2022-09-02T15:00:08;1.55;;;0.90;;
52458;SDS011;38372;52.902;6.024;2022-09-02T15:02:39;1.95;;;1.00;;
52458;SDS011;38372;52.902;6.024;2022-09-02T15:05:08;1.85;;;1.08;;
52458;SDS011;38372;52.902;6.024;2022-09-02T15:07:37;1.83;;;1.00;;
52458;SDS011;38372;52.902;6.024;2022-09-02T15:10:03;2.10;;;1.05;;
52458;SDS011;38372;52.902;6.024;2022-09-02T15:12:32;1.77;;;0.93;;
52458;SDS011;38372;52.902;6.024;2022-09-02T15:17:27;1.83;;;1.20;;
52458;SDS011;38372;52.902;6.024;2022-09-02T15:19:54;2.63;;;0.77;;
52458;SDS011;38372;52.902;6.024;2022-09-02T15:22:20;3.17;;;0.93;;
52458;SDS011;38372;52.902;6.024;2022-09-02T15:24:46;4.40;;;1.00;;
52458;SDS011;38372;52.902;6.024;2022-09-02T15:27:13;3.47;;;1.02;;
52458;SDS011;38372;52.902;6.024;2022-09-02T15:29:40;2.33;;;1.30;;
52458;SDS011;38372;52.902;6.024;2022-09-02T15:32:06;3.58;;;1.08;;
52458;SDS011;38372;52.902;6.024;2022-09-02T15:34:32;3.33;;;1.00;;
52458;SDS011;38372;52.902;6.024;2022-09-02T15:36:59;3.63;;;1.20;;
52458;SDS011;38372;52.902;6.024;2022-09-02T15:39:25;5.57;;;1.27;;
52458;SDS011;38372;52.902;6.024;2022-09-02T15:41:52;5.30;;;1.95;;
52458;SDS011;38372;52.902;6.024;2022-09-02T15:44:22;4.80;;;1.38;;
52458;SDS011;38372;52.902;6.024;2022-09-02T15:46:52;3.65;;;1.40;;
52458;SDS011;38372;52.902;6.024;2022-09-02T15:49:19;2.10;;;1.00;;
52458;SDS011;38372;52.902;6.024;2022-09-02T15:51:46;5.20;;;1.20;;
52458;SDS011;38372;52.902;6.024;2022-09-02T15:54:14;2.97;;;1.02;;
52458;SDS011;38372;52.902;6.024;2022-09-02T15:56:43;3.58;;;1.63;;
52458;SDS011;38372;52.902;6.024;2022-09-02T15:59:11;4.32;;;1.60;;
52458;SDS011;38372;52.902;6.024;2022-09-02T16:01:42;3.10;;;0.90;;
52458;SDS011;38372;52.902;6.024;2022-09-02T16:04:10;3.03;;;1.60;;
52458;SDS011;38372;52.902;6.024;2022-09-02T16:06:38;4.72;;;1.45;;
52458;SDS011;38372;52.902;6.024;2022-09-02T16:09:07;4.10;;;1.00;;
52458;SDS011;38372;52.902;6.024;2022-09-02T16:11:42;2.58;;;1.13;;
52458;SDS011;38372;52.902;6.024;2022-09-02T16:14:13;3.65;;;1.30;;
52458;SDS011;38372;52.902;6.024;2022-09-02T16:16:39;1.70;;;1.00;;
52458;SDS011;38372;52.902;6.024;2022-09-02T16:19:06;2.85;;;1.05;;
52458;SDS011;38372;52.902;6.024;2022-09-02T16:21:33;2.30;;;1.20;;
52458;SDS011;38372;52.902;6.024;2022-09-02T16:23:59;1.80;;;1.10;;
52458;SDS011;38372;52.902;6.024;2022-09-02T16:26:25;3.35;;;1.25;;
52458;SDS011;38372;52.902;6.024;2022-09-02T16:28:54;2.58;;;1.23;;
52458;SDS011;38372;52.902;6.024;2022-09-02T16:31:22;2.35;;;1.10;;
52458;SDS011;38372;52.902;6.024;2022-09-02T16:33:53;2.42;;;1.10;;
52458;SDS011;38372;52.902;6.024;2022-09-02T16:36:19;3.63;;;1.30;;
52458;SDS011;38372;52.902;6.024;2022-09-02T16:38:46;2.70;;;0.98;;
52458;SDS011;38372;52.902;6.024;2022-09-02T16:43:55;2.78;;;1.08;;
52458;SDS011;38372;52.902;6.024;2022-09-02T16:48:51;2.50;;;0.90;;
52458;SDS011;38372;52.902;6.024;2022-09-02T16:51:17;2.15;;;0.90;;
52458;SDS011;38372;52.902;6.024;2022-09-02T16:53:43;2.60;;;1.20;;
52458;SDS011;38372;52.902;6.024;2022-09-02T16:56:10;2.45;;;1.25;;
52458;SDS011;38372;52.902;6.024;2022-09-02T16:58:37;2.80;;;1.00;;
52458;SDS011;38372;52.902;6.024;2022-09-02T17:01:03;4.07;;;1.10;;
52458;SDS011;38372;52.902;6.024;2022-09-02T17:03:35;3.22;;;1.13;;
52458;SDS011;38372;52.902;6.024;2022-09-02T17:06:02;2.90;;;1.10;;
52458;SDS011;38372;52.902;6.024;2022-09-02T17:08:28;3.00;;;0.98;;
52458;SDS011;38372;52.902;6.024;2022-09-02T17:11:16;2.13;;;0.77;;
52458;SDS011;38372;52.902;6.024;2022-09-02T17:13:54;3.65;;;1.63;;
52458;SDS011;38372;52.902;6.024;2022-09-02T17:16:26;2.53;;;1.10;;
52458;SDS011;38372;52.902;6.024;2022-09-02T17:18:54;4.65;;;1.30;;
52458;SDS011;38372;52.902;6.024;2022-09-02T17:24:09;2.53;;;1.17;;
52458;SDS011;38372;52.902;6.024;2022-09-02T17:26:38;2.67;;;1.27;;
52458;SDS011;38372;52.902;6.024;2022-09-02T17:29:09;4.40;;;1.37;;
52458;SDS011;38372;52.902;6.024;2022-09-02T17:31:37;2.25;;;1.15;;
52458;SDS011;38372;52.902;6.024;2022-09-02T17:34:06;5.95;;;1.30;;
52458;SDS011;38372;52.902;6.024;2022-09-02T17:36:34;5.80;;;1.65;;
52458;SDS011;38372;52.902;6.024;2022-09-02T17:41:32;3.17;;;1.17;;
52458;SDS011;38372;52.902;6.024;2022-09-02T17:44:16;1.92;;;1.08;;
52458;SDS011;38372;52.902;6.024;2022-09-02T17:46:42;2.58;;;1.40;;
52458;SDS011;38372;52.902;6.024;2022-09-02T17:49:09;3.25;;;1.55;;